• Join FlightAware (Why Join?)
  • Login
  • US Flag 
03:25AM EDT


 

Airport Tracker/Info


-or-


 

Live Flight TrackerFlight Track Log ✈ AAR571 ✈ 06-May-2013 ✈ UHHH / KHV - RKSI / ICN

Flight Track Log - Related Links

Times and Time Zones

All times are in EDT time to prevent confusion due to time zone crossing. See the AAR571 flight status page for this flight to view local times or setup timezone preferences in your user account.

Time Position Orientation Groundspeed Altitude Reporting Facility
EDT Latitude Longitude Course Direction KTS MPH feet Rate Location/Type
02:15AM 48.5370 135.2030 42° Northeast 161 185 1,100  Level FlightAware
02:15AM 48.5510 135.2220 42° Northeast 158 182 2,300 2,280 Climbing FlightAware
02:17AM 48.6040 135.2890 40° Northeast 229 264 4,900 1,860 Climbing FlightAware
02:17AM 48.6090 135.2920 22° Northeast 237 273 5,100 3,000 Climbing FlightAware
02:17AM 48.6420 135.2830 350° North 247 284 6,900 3,420 Climbing FlightAware
02:18AM 48.6620 135.2750 345° North 254 292 7,700 2,820 Climbing FlightAware
02:18AM 48.6820 135.2580 331° Northwest 268 308 8,800 3,420 Climbing FlightAware
02:18AM 48.6950 135.2190 297° West 288 331 10,000 3,600 Climbing FlightAware
02:18AM 48.6970 135.1910 276° West 299 344 10,600 1,560 Climbing FlightAware
02:19AM 48.7040 135.0910 276° West 345 397 11,600 1,260 Climbing FlightAware
02:20AM 48.7080 135.0430 277° West 366 421 12,200 1,500 Climbing FlightAware
02:20AM 48.7160 134.9110 275° West 373 429 13,500 2,880 Climbing FlightAware
02:22AM 48.7290 134.7280 276° West 391 450 17,500 3,180 Climbing FlightAware
02:22AM 48.7370 134.6110 276° West 402 463 19,100 2,580 Climbing FlightAware
02:23AM 48.7450 134.4750 275° West 407 468 21,000 2,100 Climbing FlightAware
02:24AM 48.7540 134.3390 276° West 418 481 22,500 1,620 Climbing FlightAware
02:25AM 48.7610 134.2300 276° West 424 488 23,700 1,260 Climbing FlightAware
02:25AM 48.7680 134.1070 275° West 426 490 24,200 1,740 Climbing FlightAware
02:26AM 48.7810 133.8940 275° West 437 503 26,800 1,740 Climbing FlightAware
02:28AM 48.7970 133.6210 275° West 448 516 28,900 1,320 Climbing FlightAware
02:28AM 48.8040 133.4980 275° West 452 520 29,700 1,200 Climbing FlightAware
02:29AM 48.8110 133.3650 275° West 458 527 30,600 1,380 Climbing FlightAware
02:31AM 48.8250 133.0810 274° West 456 525 32,700 1,440 Climbing FlightAware
02:31AM 48.8160 132.9520 264° West 466 536 33,700 1,200 Climbing FlightAware
02:32AM 48.7470 132.7440 243° Southwest 488 562 34,900 960 Climbing FlightAware
02:33AM 48.6920 132.6320 233° Southwest 491 565 35,600 900 Climbing FlightAware
02:34AM 48.6530 132.5550 233° Southwest 481 554 36,100 360 Climbing FlightAware
02:35AM 48.6000 132.4490 233° Southwest 478 550 36,100  Level FlightAware
02:35AM 48.5330 132.3160 233° Southwest 482 555 36,100  Level FlightAware
02:36AM 48.4660 132.1850 232° Southwest 483 556 36,100  Level FlightAware
02:37AM 48.3760 132.0080 233° Southwest 486 559 36,100  Level FlightAware
02:38AM 48.3140 131.8870 232° Southwest 486 559 36,100  Level FlightAware
02:38AM 48.2600 131.7830 232° Southwest 487 560 36,100  Level FlightAware
02:39AM 48.2010 131.6700 232° Southwest 488 562 36,100  Level FlightAware
02:40AM 48.1120 131.5400 224° Southwest 494 568 36,100  Level FlightAware
02:41AM 48.0370 131.4620 215° Southwest 497 572 36,100  Level FlightAware
02:41AM 47.9640 131.3950 212° Southwest 496 571 36,100  Level FlightAware
02:42AM 47.8940 131.3310 212° Southwest 494 568 36,100  Level FlightAware
02:43AM 47.7960 131.2430 211° Southwest 495 570 36,100  Level FlightAware
02:44AM 47.6620 131.1250 211° Southwest 495 570 36,100  Level FlightAware
02:44AM 47.5780 131.0560 209° Southwest 493 567 36,100  Level FlightAware
02:45AM 47.4940 130.9880 209° Southwest 494 568 36,100  Level FlightAware
02:46AM 47.3780 130.8940 209° Southwest 494 568 36,100  Level FlightAware
02:47AM 47.2950 130.8270 209° Southwest 500 575 36,100  Level FlightAware
02:48AM 47.2040 130.7540 209° Southwest 498 573 36,100  Level FlightAware
02:48AM 47.1140 130.6820 209° Southwest 496 571 36,100  Level FlightAware
02:49AM 47.0380 130.6210 209° Southwest 498 573 36,100  Level FlightAware
02:50AM 46.9190 130.5200 210° Southwest 495 570 36,100  Level FlightAware
02:51AM 46.8360 130.3980 225° Southwest 485 558 36,100  Level FlightAware
02:51AM 46.7970 130.2970 241° Southwest 476 548 36,100  Level FlightAware
02:52AM 46.7650 130.1830 248° West 470 541 36,100  Level FlightAware
02:53AM 46.7320 130.0620 248° West 470 541 36,100  Level FlightAware
02:53AM 46.7000 129.9470 248° West 470 541 36,100  Level FlightAware
02:54AM 46.6730 129.8470 249° West 470 541 36,100  Level FlightAware
02:55AM 46.6450 129.7470 248° West 470 541 36,100  Level FlightAware
02:55AM 46.6170 129.6470 248° West 470 541 36,100  Level FlightAware
02:56AM 46.5820 129.5230 248° West 470 541 36,100  Level FlightAware
02:57AM 46.5550 129.4230 249° West 470 541 36,100  Level FlightAware
02:58AM 46.5270 129.3230 248° West 470 541 36,100  Level FlightAware
02:58AM 46.4990 129.2240 248° West 470 541 36,100  Level FlightAware
02:59AM 46.4720 129.1240 249° West 470 541 36,100  Level FlightAware
03:00AM 46.4370 129.0000 248° West 470 541 36,100  Level FlightAware
03:00AM 46.4090 128.9000 248° West 470 541 36,100  Level FlightAware
03:01AM 46.3820 128.8010 248° West 470 541 36,100  Level FlightAware
03:02AM 46.3540 128.7020 248° West 470 541 36,100  Level FlightAware
03:02AM 46.3260 128.6020 248° West 470 541 36,100 -300 Level FlightAware
03:05AM 46.1666 128.5573 191° South  Level Estimated
03:06AM 46.0888 128.5356 191° South  Level Estimated
03:07AM 46.0111 128.5140 191° South  Level Estimated
03:08AM 45.9333 128.4924 191° South  Level Estimated
03:09AM 45.8555 128.4709 191° South  Level Estimated
03:10AM 45.7777 128.4495 191° South  Level Estimated
03:11AM 45.7000 128.4281 191° South  Level Estimated
03:12AM 45.6222 128.4068 191° South  Level Estimated
03:13AM 45.5444 128.3855 191° South  Level Estimated
03:14AM 45.4666 128.3643 191° South  Level Estimated
03:15AM 45.3888 128.3431 191° South  Level Estimated
03:16AM 45.3110 128.3221 191° South  Level Estimated
03:17AM 45.2332 128.3010 191° South  Level Estimated
03:18AM 45.1554 128.2800 191° South  Level Estimated
03:19AM 45.0775 128.2591 191° South  Level Estimated
03:20AM 44.9997 128.2383 191° South  Level Estimated
03:21AM 44.9219 128.2174 191° South  Level Estimated
03:22AM 44.8441 128.1967 191° South  Level Estimated
03:23AM 44.7663 128.1760 191° South  Level Estimated
03:24AM 44.6884 128.1553 191° South  Level Estimated
03:25AM 44.6106 128.1348 191° South  Level Estimated
03:26AM 44.5327 128.1142 191° South  Level Estimated
03:27AM 44.4549 128.0938 191° South  Level Estimated
03:28AM 44.3770 128.0733 191° South  Level Estimated
03:29AM 44.2992 128.0530 191° South  Level Estimated
03:30AM 44.2213 128.0327 191° South  Level Estimated
03:31AM 44.1435 128.0124 191° South  Level Estimated
03:32AM 44.0656 127.9922 191° South  Level Estimated
03:33AM 43.9878 127.9721 191° South  Level Estimated
03:34AM 43.9099 127.9520 191° South  Level Estimated
03:35AM 43.8320 127.9319 191° South  Level Estimated
03:36AM 43.7541 127.9119 191° South  Level Estimated
03:37AM 43.6763 127.8920 190° South  Level Estimated
03:38AM 43.5984 127.8721 190° South  Level Estimated
03:39AM 43.5205 127.8522 190° South  Level Estimated
03:40AM 43.4426 127.8325 190° South  Level Estimated
03:41AM 43.3647 127.8127 190° South  Level Estimated
03:42AM 43.2868 127.7930 190° South  Level Estimated
03:43AM 43.2089 127.7734 190° South  Level Estimated
03:44AM 43.1310 127.7538 190° South  Level Estimated
03:45AM 43.0531 127.7343 190° South  Level Estimated
03:46AM 42.9752 127.7148 190° South  Level Estimated
03:47AM 42.8973 127.6953 190° South  Level Estimated
03:48AM 42.8194 127.6759 190° South  Level Estimated
03:49AM 42.7414 127.6566 190° South  Level Estimated
03:50AM 42.6635 127.6373 190° South  Level Estimated
03:51AM 42.5856 127.6181 190° South  Level Estimated
03:52AM 42.5076 127.5989 190° South  Level Estimated
03:53AM 42.4297 127.5797 190° South  Level Estimated
03:54AM 42.3518 127.5606 190° South  Level Estimated
03:55AM 42.2738 127.5416 190° South  Level Estimated
03:56AM 42.1959 127.5226 190° South  Level Estimated
03:57AM 42.1180 127.5036 190° South  Level Estimated
03:58AM 42.0400 127.4847 190° South  Level Estimated
03:59AM 41.9621 127.4659 190° South  Level Estimated
04:00AM 41.8841 127.4470 190° South  Level Estimated
04:01AM 41.8061 127.4283 190° South  Level Estimated
04:02AM 41.7282 127.4095 190° South  Level Estimated
04:03AM 41.6502 127.3908 190° South  Level Estimated
04:04AM 41.5722 127.3722 190° South  Level Estimated
04:05AM 41.4943 127.3536 190° South  Level Estimated
04:06AM 41.4163 127.3351 190° South  Level Estimated
04:07AM 41.3383 127.3166 190° South  Level Estimated
04:08AM 41.2603 127.2981 190° South  Level Estimated
04:09AM 41.1824 127.2797 190° South  Level Estimated
04:10AM 41.1044 127.2613 190° South  Level Estimated
04:11AM 41.0264 127.2430 190° South  Level Estimated
04:12AM 40.9484 127.2247 190° South  Level Estimated
04:13AM 40.8704 127.2065 190° South  Level Estimated
04:14AM 40.7924 127.1883 190° South  Level Estimated
04:15AM 40.7144 127.1701 190° South  Level Estimated
04:16AM 40.6364 127.1520 190° South  Level Estimated
04:17AM 40.5584 127.1339 190° South  Level Estimated
04:18AM 40.4804 127.1159 190° South  Level Estimated
04:19AM 40.4024 127.0979 190° South  Level Estimated
04:20AM 40.3244 127.0800 190° South  Level Estimated
04:21AM 40.2463 127.0621 190° South  Level Estimated
04:22AM 40.1683 127.0442 190° South  Level Estimated
04:23AM 40.0903 127.0264 190° South  Level Estimated
04:24AM 40.0123 127.0086 190° South  Level Estimated
04:25AM 39.9342 126.9909 190° South  Level Estimated
04:26AM 39.8562 126.9732 190° South  Level Estimated
04:27AM 39.7782 126.9555 190° South  Level Estimated
04:28AM 39.7001 126.9379 190° South  Level Estimated
04:29AM 39.6221 126.9203 190° South  Level Estimated
04:30AM 39.5441 126.9028 190° South  Level Estimated
04:31AM 39.4660 126.8853 190° South  Level Estimated
04:32AM 39.3880 126.8678 190° South  Level Estimated
04:33AM 39.3099 126.8504 190° South  Level Estimated
04:34AM 39.2319 126.8330 190° South  Level Estimated
04:35AM 39.1538 126.8157 190° South  Level Estimated
04:36AM 39.0758 126.7984 190° South  Level Estimated
04:37AM 38.9977 126.7811 190° South  Level Estimated
04:38AM 38.9197 126.7639 190° South  Level Estimated
04:39AM 38.8416 126.7467 190° South  Level Estimated
04:40AM 38.7635 126.7295 190° South  Level Estimated
04:41AM 38.6855 126.7124 190° South  Level Estimated
04:42AM 38.6074 126.6953 190° South  Level Estimated
04:43AM 38.5293 126.6783 190° South  Level Estimated
04:44AM 38.4512 126.6613 190° South  Level Estimated
04:45AM 38.3731 126.6443 190° South  Level Estimated
04:46AM 38.2951 126.6274 190° South  Level Estimated
04:47AM 38.2170 126.6105 190° South  Level Estimated
04:47AM 37.1730 126.4350 190° South 290 334 5,700  Level FlightAware
04:48AM 38.1389 126.5937 190° South  Level Estimated
04:49AM 38.0608 126.5768 190° South  Level Estimated
04:50AM 37.9827 126.5600 190° South  Level Estimated
04:50AM 37.2620 126.5870 54° Northeast 3,300  Level FlightAware
04:53AM 37.4351 126.4730 332° Northwest  Level Estimated
04:54AM 37.4691 126.4505 332° Northwest  Level Estimated
04:55AM 37.4691 126.4505 335° Northwest  Level Estimated
04:56AM 37.4691 126.4505 335° Northwest  Level Estimated
04:57AM 37.4691 126.4505 335° Northwest  Level Estimated
04:58AM 37.4691 126.4505 335° Northwest  Level Estimated
04:59AM 37.4691 126.4505 335° Northwest  Level Estimated
05:00AM 37.4691 126.4505 335° Northwest  Level Estimated
05:01AM 37.4691 126.4505 335° Northwest  Level Estimated
05:02AM 37.4691 126.4505 335° Northwest  Level Estimated
05:03AM 37.4691 126.4505 335° Northwest  Level Estimated
05:04AM 37.4691 126.4505 335° Northwest  Level Estimated
05:05AM 37.4691 126.4505 335° Northwest  Level Estimated
05:06AM 37.4691 126.4505 335° Northwest  Level Estimated
05:07AM 37.4691 126.4505 335° Northwest  Level Estimated